sensor_id;sensor_type;location;lat;lon;timestamp;temperature;humidity
60455;DHT22;54989;53.398;6.564;2022-07-29T00:01:58;21.60;62.30
60455;DHT22;54989;53.398;6.564;2022-07-29T00:04:25;21.60;62.30
60455;DHT22;54989;53.398;6.564;2022-07-29T00:06:53;21.60;62.30
60455;DHT22;54989;53.398;6.564;2022-07-29T00:09:21;21.60;62.30
60455;DHT22;54989;53.398;6.564;2022-07-29T00:11:48;21.60;62.30
60455;DHT22;54989;53.398;6.564;2022-07-29T00:14:16;21.60;62.30
60455;DHT22;54989;53.398;6.564;2022-07-29T00:16:44;21.60;62.30
60455;DHT22;54989;53.398;6.564;2022-07-29T00:19:11;21.60;62.30
60455;DHT22;54989;53.398;6.564;2022-07-29T00:21:39;21.60;62.30
60455;DHT22;54989;53.398;6.564;2022-07-29T00:24:06;21.50;62.30
60455;DHT22;54989;53.398;6.564;2022-07-29T00:26:34;21.50;62.30
60455;DHT22;54989;53.398;6.564;2022-07-29T00:29:03;21.60;62.40
60455;DHT22;54989;53.398;6.564;2022-07-29T00:31:51;21.50;62.40
60455;DHT22;54989;53.398;6.564;2022-07-29T00:34:18;21.50;62.40
60455;DHT22;54989;53.398;6.564;2022-07-29T00:37:04;21.50;62.40
60455;DHT22;54989;53.398;6.564;2022-07-29T00:39:33;21.50;62.40
60455;DHT22;54989;53.398;6.564;2022-07-29T00:42:04;21.50;62.40
60455;DHT22;54989;53.398;6.564;2022-07-29T00:44:35;21.50;62.40
60455;DHT22;54989;53.398;6.564;2022-07-29T00:47:03;21.50;62.40
60455;DHT22;54989;53.398;6.564;2022-07-29T00:49:31;21.40;62.40
60455;DHT22;54989;53.398;6.564;2022-07-29T00:52:03;21.40;62.40
60455;DHT22;54989;53.398;6.564;2022-07-29T00:54:32;21.40;62.40
60455;DHT22;54989;53.398;6.564;2022-07-29T00:57:00;21.50;62.50
60455;DHT22;54989;53.398;6.564;2022-07-29T00:59:28;21.40;62.40
60455;DHT22;54989;53.398;6.564;2022-07-29T01:02:02;21.40;62.50
60455;DHT22;54989;53.398;6.564;2022-07-29T01:04:31;21.40;62.40
60455;DHT22;54989;53.398;6.564;2022-07-29T01:07:00;21.40;62.50
60455;DHT22;54989;53.398;6.564;2022-07-29T01:09:29;21.40;62.50
60455;DHT22;54989;53.398;6.564;2022-07-29T01:12:16;21.40;62.50
60455;DHT22;54989;53.398;6.564;2022-07-29T01:14:45;21.40;62.50
60455;DHT22;54989;53.398;6.564;2022-07-29T01:20:02;21.40;62.50
60455;DHT22;54989;53.398;6.564;2022-07-29T01:31:03;21.40;62.50
60455;DHT22;54989;53.398;6.564;2022-07-29T01:33:38;21.30;62.50
60455;DHT22;54989;53.398;6.564;2022-07-29T01:36:35;21.30;62.60
60455;DHT22;54989;53.398;6.564;2022-07-29T01:39:14;21.40;62.60
60455;DHT22;54989;53.398;6.564;2022-07-29T01:41:49;21.40;62.60
60455;DHT22;54989;53.398;6.564;2022-07-29T01:44:23;21.30;62.60
60455;DHT22;54989;53.398;6.564;2022-07-29T01:46:57;21.30;62.70
60455;DHT22;54989;53.398;6.564;2022-07-29T01:49:31;21.30;62.70
60455;DHT22;54989;53.398;6.564;2022-07-29T01:52:07;21.30;62.60
60455;DHT22;54989;53.398;6.564;2022-07-29T01:54:41;21.30;62.60
60455;DHT22;54989;53.398;6.564;2022-07-29T01:57:14;21.30;62.60
60455;DHT22;54989;53.398;6.564;2022-07-29T01:59:46;21.30;62.70
60455;DHT22;54989;53.398;6.564;2022-07-29T02:02:16;21.30;62.60
60455;DHT22;54989;53.398;6.564;2022-07-29T02:04:47;21.30;62.60
60455;DHT22;54989;53.398;6.564;2022-07-29T02:07:19;21.30;62.60
60455;DHT22;54989;53.398;6.564;2022-07-29T02:09:48;21.30;62.70
60455;DHT22;54989;53.398;6.564;2022-07-29T02:12:18;21.30;62.70
60455;DHT22;54989;53.398;6.564;2022-07-29T02:14:50;21.30;62.70
60455;DHT22;54989;53.398;6.564;2022-07-29T02:17:26;21.30;62.70
60455;DHT22;54989;53.398;6.564;2022-07-29T02:19:57;21.30;62.70
60455;DHT22;54989;53.398;6.564;2022-07-29T02:22:29;21.30;62.70
60455;DHT22;54989;53.398;6.564;2022-07-29T02:24:58;21.30;63.30
60455;DHT22;54989;53.398;6.564;2022-07-29T02:27:28;21.30;62.70
60455;DHT22;54989;53.398;6.564;2022-07-29T02:29:58;21.30;62.70
60455;DHT22;54989;53.398;6.564;2022-07-29T02:32:28;21.20;62.70
60455;DHT22;54989;53.398;6.564;2022-07-29T02:34:56;21.30;62.70
60455;DHT22;54989;53.398;6.564;2022-07-29T02:37:26;21.20;62.70
60455;DHT22;54989;53.398;6.564;2022-07-29T02:39:55;21.30;62.70
60455;DHT22;54989;53.398;6.564;2022-07-29T02:42:26;21.20;62.70
60455;DHT22;54989;53.398;6.564;2022-07-29T02:44:55;21.20;63.40
60455;DHT22;54989;53.398;6.564;2022-07-29T02:47:43;21.30;62.70
60455;DHT22;54989;53.398;6.564;2022-07-29T02:50:21;21.30;62.80
60455;DHT22;54989;53.398;6.564;2022-07-29T02:52:58;21.30;62.80
60455;DHT22;54989;53.398;6.564;2022-07-29T02:55:34;21.20;62.70
60455;DHT22;54989;53.398;6.564;2022-07-29T02:58:09;21.20;62.70
60455;DHT22;54989;53.398;6.564;2022-07-29T03:00:40;21.20;62.70
60455;DHT22;54989;53.398;6.564;2022-07-29T03:03:12;21.20;62.70
60455;DHT22;54989;53.398;6.564;2022-07-29T03:05:40;21.20;62.70
60455;DHT22;54989;53.398;6.564;2022-07-29T03:08:10;21.20;62.70
60455;DHT22;54989;53.398;6.564;2022-07-29T03:10:44;21.20;62.70
60455;DHT22;54989;53.398;6.564;2022-07-29T03:13:13;21.20;62.70
60455;DHT22;54989;53.398;6.564;2022-07-29T03:15:43;21.20;62.70
60455;DHT22;54989;53.398;6.564;2022-07-29T03:18:11;21.20;62.70
60455;DHT22;54989;53.398;6.564;2022-07-29T03:20:39;21.20;62.80
60455;DHT22;54989;53.398;6.564;2022-07-29T03:23:08;21.20;62.70
60455;DHT22;54989;53.398;6.564;2022-07-29T03:25:36;21.20;62.70
60455;DHT22;54989;53.398;6.564;2022-07-29T03:28:03;21.20;62.70
60455;DHT22;54989;53.398;6.564;2022-07-29T03:30:31;21.20;62.80
60455;DHT22;54989;53.398;6.564;2022-07-29T03:32:58;21.20;62.80
60455;DHT22;54989;53.398;6.564;2022-07-29T03:35:26;21.20;62.80
60455;DHT22;54989;53.398;6.564;2022-07-29T03:37:54;21.20;62.80
60455;DHT22;54989;53.398;6.564;2022-07-29T03:40:46;21.20;62.80
60455;DHT22;54989;53.398;6.564;2022-07-29T03:43:16;21.10;62.70
60455;DHT22;54989;53.398;6.564;2022-07-29T03:45:47;21.20;62.80
60455;DHT22;54989;53.398;6.564;2022-07-29T03:48:19;21.20;62.80
60455;DHT22;54989;53.398;6.564;2022-07-29T03:50:47;21.20;62.80
60455;DHT22;54989;53.398;6.564;2022-07-29T03:53:15;21.20;62.80
60455;DHT22;54989;53.398;6.564;2022-07-29T03:55:46;21.10;62.80
60455;DHT22;54989;53.398;6.564;2022-07-29T03:58:16;21.10;62.80
60455;DHT22;54989;53.398;6.564;2022-07-29T04:00:46;21.10;62.80
60455;DHT22;54989;53.398;6.564;2022-07-29T04:03:15;21.10;62.80
60455;DHT22;54989;53.398;6.564;2022-07-29T04:05:43;21.10;62.80
60455;DHT22;54989;53.398;6.564;2022-07-29T04:08:10;21.10;62.80
60455;DHT22;54989;53.398;6.564;2022-07-29T04:10:38;21.10;62.80
60455;DHT22;54989;53.398;6.564;2022-07-29T04:13:05;21.10;62.80
60455;DHT22;54989;53.398;6.564;2022-07-29T04:15:33;21.10;62.80
60455;DHT22;54989;53.398;6.564;2022-07-29T04:18:00;21.10;62.80
60455;DHT22;54989;53.398;6.564;2022-07-29T04:20:28;21.10;62.80
60455;DHT22;54989;53.398;6.564;2022-07-29T04:22:55;21.10;62.80
60455;DHT22;54989;53.398;6.564;2022-07-29T04:25:23;21.10;62.80
60455;DHT22;54989;53.398;6.564;2022-07-29T04:27:50;21.10;62.80
60455;DHT22;54989;53.398;6.564;2022-07-29T04:30:31;21.10;62.80
60455;DHT22;54989;53.398;6.564;2022-07-29T04:33:00;21.10;62.80
60455;DHT22;54989;53.398;6.564;2022-07-29T04:35:29;21.10;62.80
60455;DHT22;54989;53.398;6.564;2022-07-29T04:38:05;21.10;62.80
60455;DHT22;54989;53.398;6.564;2022-07-29T04:40:41;21.10;62.90
60455;DHT22;54989;53.398;6.564;2022-07-29T04:43:09;21.10;62.90
60455;DHT22;54989;53.398;6.564;2022-07-29T04:45:38;21.10;62.80
60455;DHT22;54989;53.398;6.564;2022-07-29T04:48:05;21.10;62.90
60455;DHT22;54989;53.398;6.564;2022-07-29T04:50:33;21.10;62.90
60455;DHT22;54989;53.398;6.564;2022-07-29T04:53:01;21.10;62.80
60455;DHT22;54989;53.398;6.564;2022-07-29T04:55:28;21.10;62.80
60455;DHT22;54989;53.398;6.564;2022-07-29T04:57:56;21.10;62.80
60455;DHT22;54989;53.398;6.564;2022-07-29T05:00:24;21.10;62.80
60455;DHT22;54989;53.398;6.564;2022-07-29T05:02:59;21.10;62.90
60455;DHT22;54989;53.398;6.564;2022-07-29T05:05:27;21.10;62.80
60455;DHT22;54989;53.398;6.564;2022-07-29T05:07:54;21.10;62.80
60455;DHT22;54989;53.398;6.564;2022-07-29T05:10:22;21.10;62.90
60455;DHT22;54989;53.398;6.564;2022-07-29T05:12:50;21.10;62.80
60455;DHT22;54989;53.398;6.564;2022-07-29T05:15:17;21.10;62.80
60455;DHT22;54989;53.398;6.564;2022-07-29T05:17:45;21.10;62.90
60455;DHT22;54989;53.398;6.564;2022-07-29T05:20:13;21.10;63.00
60455;DHT22;54989;53.398;6.564;2022-07-29T05:22:40;21.10;62.90
60455;DHT22;54989;53.398;6.564;2022-07-29T05:25:08;21.10;62.90
60455;DHT22;54989;53.398;6.564;2022-07-29T05:27:36;21.10;62.90
60455;DHT22;54989;53.398;6.564;2022-07-29T05:30:04;21.10;63.00
60455;DHT22;54989;53.398;6.564;2022-07-29T05:32:32;21.10;63.00
60455;DHT22;54989;53.398;6.564;2022-07-29T05:34:59;21.10;63.00
60455;DHT22;54989;53.398;6.564;2022-07-29T05:37:27;21.00;63.00
60455;DHT22;54989;53.398;6.564;2022-07-29T05:39:54;21.10;63.10
60455;DHT22;54989;53.398;6.564;2022-07-29T05:42:25;21.10;63.00
60455;DHT22;54989;53.398;6.564;2022-07-29T05:44:53;21.10;62.90
60455;DHT22;54989;53.398;6.564;2022-07-29T05:47:21;21.00;62.90
60455;DHT22;54989;53.398;6.564;2022-07-29T05:49:48;21.10;63.00
60455;DHT22;54989;53.398;6.564;2022-07-29T05:52:16;21.00;62.90
60455;DHT22;54989;53.398;6.564;2022-07-29T05:54:44;21.00;62.80
60455;DHT22;54989;53.398;6.564;2022-07-29T05:57:22;21.10;62.90
60455;DHT22;54989;53.398;6.564;2022-07-29T05:59:50;21.10;62.80
60455;DHT22;54989;53.398;6.564;2022-07-29T06:02:18;21.10;62.80
60455;DHT22;54989;53.398;6.564;2022-07-29T06:04:46;21.10;62.80
60455;DHT22;54989;53.398;6.564;2022-07-29T06:07:13;21.10;62.90
60455;DHT22;54989;53.398;6.564;2022-07-29T06:09:41;21.10;62.90
60455;DHT22;54989;53.398;6.564;2022-07-29T06:12:09;21.10;62.90
60455;DHT22;54989;53.398;6.564;2022-07-29T06:14:36;21.10;62.90
60455;DHT22;54989;53.398;6.564;2022-07-29T06:17:05;21.00;62.90
60455;DHT22;54989;53.398;6.564;2022-07-29T06:19:36;21.10;62.90
60455;DHT22;54989;53.398;6.564;2022-07-29T06:22:03;21.10;62.90
60455;DHT22;54989;53.398;6.564;2022-07-29T06:24:31;21.10;62.90
60455;DHT22;54989;53.398;6.564;2022-07-29T06:26:58;21.10;62.80
60455;DHT22;54989;53.398;6.564;2022-07-29T06:29:26;21.10;62.80
60455;DHT22;54989;53.398;6.564;2022-07-29T06:31:53;21.10;63.50
60455;DHT22;54989;53.398;6.564;2022-07-29T06:34:21;21.10;62.80
60455;DHT22;54989;53.398;6.564;2022-07-29T06:36:48;21.10;62.80
60455;DHT22;54989;53.398;6.564;2022-07-29T06:39:18;21.10;62.80
60455;DHT22;54989;53.398;6.564;2022-07-29T06:41:49;21.10;62.80
60455;DHT22;54989;53.398;6.564;2022-07-29T06:44:18;21.10;62.80
60455;DHT22;54989;53.398;6.564;2022-07-29T06:46:46;21.10;62.90
60455;DHT22;54989;53.398;6.564;2022-07-29T06:49:16;21.10;62.80
60455;DHT22;54989;53.398;6.564;2022-07-29T06:51:43;21.10;62.90
60455;DHT22;54989;53.398;6.564;2022-07-29T06:54:11;21.10;62.80
60455;DHT22;54989;53.398;6.564;2022-07-29T06:56:39;21.10;62.90
60455;DHT22;54989;53.398;6.564;2022-07-29T06:59:09;21.10;62.90
60455;DHT22;54989;53.398;6.564;2022-07-29T07:01:42;21.10;62.90
60455;DHT22;54989;53.398;6.564;2022-07-29T07:04:11;21.10;62.80
60455;DHT22;54989;53.398;6.564;2022-07-29T07:06:39;21.10;62.90
60455;DHT22;54989;53.398;6.564;2022-07-29T07:09:07;21.10;62.80
60455;DHT22;54989;53.398;6.564;2022-07-29T07:11:34;21.10;62.80
60455;DHT22;54989;53.398;6.564;2022-07-29T07:14:02;21.10;62.90
60455;DHT22;54989;53.398;6.564;2022-07-29T07:16:31;21.10;62.90
60455;DHT22;54989;53.398;6.564;2022-07-29T07:18:59;21.10;62.90
60455;DHT22;54989;53.398;6.564;2022-07-29T07:21:27;21.10;62.80
60455;DHT22;54989;53.398;6.564;2022-07-29T07:23:57;21.10;62.80
60455;DHT22;54989;53.398;6.564;2022-07-29T07:26:25;21.10;62.80
60455;DHT22;54989;53.398;6.564;2022-07-29T07:28:53;21.10;62.80
60455;DHT22;54989;53.398;6.564;2022-07-29T07:31:20;21.20;62.80
60455;DHT22;54989;53.398;6.564;2022-07-29T07:33:48;21.10;62.80
60455;DHT22;54989;53.398;6.564;2022-07-29T07:36:16;21.20;62.90
60455;DHT22;54989;53.398;6.564;2022-07-29T07:38:43;21.20;62.80
60455;DHT22;54989;53.398;6.564;2022-07-29T07:41:11;21.20;62.90
60455;DHT22;54989;53.398;6.564;2022-07-29T07:43:38;21.20;62.90
60455;DHT22;54989;53.398;6.564;2022-07-29T07:46:06;21.20;63.00
60455;DHT22;54989;53.398;6.564;2022-07-29T07:48:34;21.20;63.10
60455;DHT22;54989;53.398;6.564;2022-07-29T07:51:03;21.20;63.00
60455;DHT22;54989;53.398;6.564;2022-07-29T07:53:30;21.20;63.20
60455;DHT22;54989;53.398;6.564;2022-07-29T07:55:58;21.20;63.30
60455;DHT22;54989;53.398;6.564;2022-07-29T07:58:41;21.20;63.30
60455;DHT22;54989;53.398;6.564;2022-07-29T08:01:09;21.20;63.20
60455;DHT22;54989;53.398;6.564;2022-07-29T08:03:37;21.20;63.20
60455;DHT22;54989;53.398;6.564;2022-07-29T08:06:06;21.20;63.20
60455;DHT22;54989;53.398;6.564;2022-07-29T08:08:33;21.20;63.30
60455;DHT22;54989;53.398;6.564;2022-07-29T08:11:02;21.20;63.20
60455;DHT22;54989;53.398;6.564;2022-07-29T08:13:36;21.20;63.20
60455;DHT22;54989;53.398;6.564;2022-07-29T08:16:05;21.30;63.20
60455;DHT22;54989;53.398;6.564;2022-07-29T08:18:41;21.20;63.20
60455;DHT22;54989;53.398;6.564;2022-07-29T08:21:08;21.30;63.20
60455;DHT22;54989;53.398;6.564;2022-07-29T08:23:36;21.30;63.20
60455;DHT22;54989;53.398;6.564;2022-07-29T08:26:15;21.30;63.10
60455;DHT22;54989;53.398;6.564;2022-07-29T08:28:44;21.30;63.20
60455;DHT22;54989;53.398;6.564;2022-07-29T08:31:13;21.30;63.10
60455;DHT22;54989;53.398;6.564;2022-07-29T08:33:41;21.30;63.10
60455;DHT22;54989;53.398;6.564;2022-07-29T08:36:09;21.30;63.10
60455;DHT22;54989;53.398;6.564;2022-07-29T08:38:36;21.30;63.10
60455;DHT22;54989;53.398;6.564;2022-07-29T08:41:04;21.30;63.00
60455;DHT22;54989;53.398;6.564;2022-07-29T08:43:32;21.30;63.10
60455;DHT22;54989;53.398;6.564;2022-07-29T08:46:02;21.30;63.10
60455;DHT22;54989;53.398;6.564;2022-07-29T08:48:29;21.30;63.10
60455;DHT22;54989;53.398;6.564;2022-07-29T08:50:58;21.30;63.00
60455;DHT22;54989;53.398;6.564;2022-07-29T08:53:26;21.30;63.20
60455;DHT22;54989;53.398;6.564;2022-07-29T08:55:55;21.30;63.10
60455;DHT22;54989;53.398;6.564;2022-07-29T08:58:24;21.30;63.00
60455;DHT22;54989;53.398;6.564;2022-07-29T09:00:54;21.30;63.00
60455;DHT22;54989;53.398;6.564;2022-07-29T09:03:27;21.30;63.00
60455;DHT22;54989;53.398;6.564;2022-07-29T09:05:59;21.30;63.00
60455;DHT22;54989;53.398;6.564;2022-07-29T09:08:26;21.30;63.00
60455;DHT22;54989;53.398;6.564;2022-07-29T09:10:54;21.30;63.00
60455;DHT22;54989;53.398;6.564;2022-07-29T09:13:26;21.40;63.00
60455;DHT22;54989;53.398;6.564;2022-07-29T09:15:53;21.30;63.00
60455;DHT22;54989;53.398;6.564;2022-07-29T09:21:08;21.40;63.00
60455;DHT22;54989;53.398;6.564;2022-07-29T09:24:12;21.40;63.10
60455;DHT22;54989;53.398;6.564;2022-07-29T09:26:42;21.40;63.30
60455;DHT22;54989;53.398;6.564;2022-07-29T09:29:15;21.40;63.20
60455;DHT22;54989;53.398;6.564;2022-07-29T09:31:45;21.40;63.20
60455;DHT22;54989;53.398;6.564;2022-07-29T09:34:15;21.40;63.20
60455;DHT22;54989;53.398;6.564;2022-07-29T09:36:45;21.40;63.20
60455;DHT22;54989;53.398;6.564;2022-07-29T09:39:15;21.40;63.30
60455;DHT22;54989;53.398;6.564;2022-07-29T09:41:45;21.40;63.10
60455;DHT22;54989;53.398;6.564;2022-07-29T09:44:13;21.40;63.20
60455;DHT22;54989;53.398;6.564;2022-07-29T09:46:59;21.40;63.00
60455;DHT22;54989;53.398;6.564;2022-07-29T09:49:56;21.40;63.00
60455;DHT22;54989;53.398;6.564;2022-07-29T09:52:21;21.40;63.00
60455;DHT22;54989;53.398;6.564;2022-07-29T09:54:49;21.50;63.20
60455;DHT22;54989;53.398;6.564;2022-07-29T09:57:25;21.50;63.20
60455;DHT22;54989;53.398;6.564;2022-07-29T10:00:07;21.40;63.10
60455;DHT22;54989;53.398;6.564;2022-07-29T10:02:41;21.50;63.10
60455;DHT22;54989;53.398;6.564;2022-07-29T10:05:22;21.50;63.20
60455;DHT22;54989;53.398;6.564;2022-07-29T10:07:58;21.50;63.20
60455;DHT22;54989;53.398;6.564;2022-07-29T10:10:28;21.50;63.20
60455;DHT22;54989;53.398;6.564;2022-07-29T10:13:00;21.50;63.20
60455;DHT22;54989;53.398;6.564;2022-07-29T10:15:38;21.50;63.30
60455;DHT22;54989;53.398;6.564;2022-07-29T10:18:09;21.50;63.20
60455;DHT22;54989;53.398;6.564;2022-07-29T10:20:38;21.50;63.20
60455;DHT22;54989;53.398;6.564;2022-07-29T10:23:05;21.50;63.10
60455;DHT22;54989;53.398;6.564;2022-07-29T10:25:33;21.50;63.20
60455;DHT22;54989;53.398;6.564;2022-07-29T10:28:00;21.50;63.10
60455;DHT22;54989;53.398;6.564;2022-07-29T10:30:28;21.50;63.00
60455;DHT22;54989;53.398;6.564;2022-07-29T10:44:21;21.60;63.20
60455;DHT22;54989;53.398;6.564;2022-07-29T10:46:51;21.60;63.20
60455;DHT22;54989;53.398;6.564;2022-07-29T10:49:24;21.50;63.10
60455;DHT22;54989;53.398;6.564;2022-07-29T10:52:08;21.50;63.10
60455;DHT22;54989;53.398;6.564;2022-07-29T10:54:47;21.50;63.10
60455;DHT22;54989;53.398;6.564;2022-07-29T11:02:44;21.60;63.10
60455;DHT22;54989;53.398;6.564;2022-07-29T11:05:18;21.60;63.10
60455;DHT22;54989;53.398;6.564;2022-07-29T11:08:23;21.60;63.00
60455;DHT22;54989;53.398;6.564;2022-07-29T11:13:55;21.60;63.10
60455;DHT22;54989;53.398;6.564;2022-07-29T11:16:23;21.60;63.10
60455;DHT22;54989;53.398;6.564;2022-07-29T11:21:42;21.60;63.00
60455;DHT22;54989;53.398;6.564;2022-07-29T11:24:29;21.60;63.00
60455;DHT22;54989;53.398;6.564;2022-07-29T11:27:13;21.60;63.00
60455;DHT22;54989;53.398;6.564;2022-07-29T11:29:51;21.60;63.00
60455;DHT22;54989;53.398;6.564;2022-07-29T11:32:20;21.60;63.00
60455;DHT22;54989;53.398;6.564;2022-07-29T11:35:13;21.60;63.00
60455;DHT22;54989;53.398;6.564;2022-07-29T11:49:27;21.60;63.00
60455;DHT22;54989;53.398;6.564;2022-07-29T11:51:58;21.60;63.00
60455;DHT22;54989;53.398;6.564;2022-07-29T11:54:33;21.60;63.00
60455;DHT22;54989;53.398;6.564;2022-07-29T11:57:21;21.60;63.00
60455;DHT22;54989;53.398;6.564;2022-07-29T11:59:57;21.60;63.10
60455;DHT22;54989;53.398;6.564;2022-07-29T12:02:42;21.60;63.10
60455;DHT22;54989;53.398;6.564;2022-07-29T12:05:15;21.60;63.10
60455;DHT22;54989;53.398;6.564;2022-07-29T12:08:17;21.60;63.10
60455;DHT22;54989;53.398;6.564;2022-07-29T12:10:50;21.60;63.00
60455;DHT22;54989;53.398;6.564;2022-07-29T12:13:20;21.70;63.00
60455;DHT22;54989;53.398;6.564;2022-07-29T12:15:55;21.70;63.00
60455;DHT22;54989;53.398;6.564;2022-07-29T12:18:26;21.70;63.00
60455;DHT22;54989;53.398;6.564;2022-07-29T12:20:58;21.70;62.90
60455;DHT22;54989;53.398;6.564;2022-07-29T12:23:31;21.70;63.00
60455;DHT22;54989;53.398;6.564;2022-07-29T12:26:05;21.70;62.90
60455;DHT22;54989;53.398;6.564;2022-07-29T12:28:37;21.70;62.90
60455;DHT22;54989;53.398;6.564;2022-07-29T12:31:15;21.70;62.90
60455;DHT22;54989;53.398;6.564;2022-07-29T12:34:03;21.70;62.90
60455;DHT22;54989;53.398;6.564;2022-07-29T12:36:30;21.70;62.90
60455;DHT22;54989;53.398;6.564;2022-07-29T12:38:58;21.70;62.80
60455;DHT22;54989;53.398;6.564;2022-07-29T12:41:28;21.80;62.90
60455;DHT22;54989;53.398;6.564;2022-07-29T12:43:56;21.80;62.80
60455;DHT22;54989;53.398;6.564;2022-07-29T12:46:23;21.80;62.80
60455;DHT22;54989;53.398;6.564;2022-07-29T12:48:52;21.80;62.80
60455;DHT22;54989;53.398;6.564;2022-07-29T12:51:38;21.80;62.80
60455;DHT22;54989;53.398;6.564;2022-07-29T12:56:36;21.80;62.80
60455;DHT22;54989;53.398;6.564;2022-07-29T12:59:19;21.80;62.70
60455;DHT22;54989;53.398;6.564;2022-07-29T13:01:48;21.80;62.70
60455;DHT22;54989;53.398;6.564;2022-07-29T13:04:27;21.90;62.80
60455;DHT22;54989;53.398;6.564;2022-07-29T13:07:06;21.80;62.60
60455;DHT22;54989;53.398;6.564;2022-07-29T13:09:57;21.90;62.70
60455;DHT22;54989;53.398;6.564;2022-07-29T13:12:37;21.90;62.70
60455;DHT22;54989;53.398;6.564;2022-07-29T13:15:17;21.90;62.70
60455;DHT22;54989;53.398;6.564;2022-07-29T13:17:44;21.90;62.60
60455;DHT22;54989;53.398;6.564;2022-07-29T13:20:14;21.90;62.60
60455;DHT22;54989;53.398;6.564;2022-07-29T13:22:42;22.00;62.60
60455;DHT22;54989;53.398;6.564;2022-07-29T13:25:09;22.00;62.50
60455;DHT22;54989;53.398;6.564;2022-07-29T13:27:38;22.00;62.50
60455;DHT22;54989;53.398;6.564;2022-07-29T13:30:12;22.00;62.50
60455;DHT22;54989;53.398;6.564;2022-07-29T13:32:39;22.00;62.40
60455;DHT22;54989;53.398;6.564;2022-07-29T13:35:08;22.00;62.40
60455;DHT22;54989;53.398;6.564;2022-07-29T13:37:36;22.10;62.50
60455;DHT22;54989;53.398;6.564;2022-07-29T13:40:07;22.10;62.50
60455;DHT22;54989;53.398;6.564;2022-07-29T13:42:35;22.10;62.40
60455;DHT22;54989;53.398;6.564;2022-07-29T13:45:04;22.10;62.40
60455;DHT22;54989;53.398;6.564;2022-07-29T13:47:33;22.10;62.30
60455;DHT22;54989;53.398;6.564;2022-07-29T13:50:01;22.20;62.30
60455;DHT22;54989;53.398;6.564;2022-07-29T13:52:31;22.20;62.30
60455;DHT22;54989;53.398;6.564;2022-07-29T13:54:58;22.20;62.30
60455;DHT22;54989;53.398;6.564;2022-07-29T13:57:26;22.30;62.30
60455;DHT22;54989;53.398;6.564;2022-07-29T13:59:54;22.30;62.20
60455;DHT22;54989;53.398;6.564;2022-07-29T14:02:22;22.30;62.20
60455;DHT22;54989;53.398;6.564;2022-07-29T14:04:53;22.40;62.20
60455;DHT22;54989;53.398;6.564;2022-07-29T14:07:21;22.40;62.10
60455;DHT22;54989;53.398;6.564;2022-07-29T14:09:49;22.40;62.10
60455;DHT22;54989;53.398;6.564;2022-07-29T14:12:17;22.50;62.10
60455;DHT22;54989;53.398;6.564;2022-07-29T14:14:44;22.50;62.00
60455;DHT22;54989;53.398;6.564;2022-07-29T14:17:14;22.50;61.90
60455;DHT22;54989;53.398;6.564;2022-07-29T14:19:41;22.60;62.50
60455;DHT22;54989;53.398;6.564;2022-07-29T14:22:09;22.60;62.10
60455;DHT22;54989;53.398;6.564;2022-07-29T14:24:37;22.60;61.90
60455;DHT22;54989;53.398;6.564;2022-07-29T14:27:06;22.70;61.90
60455;DHT22;54989;53.398;6.564;2022-07-29T14:29:34;22.60;61.80
60455;DHT22;54989;53.398;6.564;2022-07-29T14:32:05;22.70;61.80
60455;DHT22;54989;53.398;6.564;2022-07-29T14:34:37;22.70;61.80
60455;DHT22;54989;53.398;6.564;2022-07-29T14:37:05;22.70;61.70
60455;DHT22;54989;53.398;6.564;2022-07-29T14:39:35;22.70;61.70
60455;DHT22;54989;53.398;6.564;2022-07-29T14:42:10;22.70;61.70
60455;DHT22;54989;53.398;6.564;2022-07-29T14:44:39;22.70;61.70
60455;DHT22;54989;53.398;6.564;2022-07-29T14:47:08;22.80;61.70
60455;DHT22;54989;53.398;6.564;2022-07-29T14:49:36;22.80;61.80
60455;DHT22;54989;53.398;6.564;2022-07-29T14:52:04;22.80;61.90
60455;DHT22;54989;53.398;6.564;2022-07-29T14:54:33;22.80;61.90
60455;DHT22;54989;53.398;6.564;2022-07-29T14:57:01;22.80;61.80
60455;DHT22;54989;53.398;6.564;2022-07-29T14:59:28;22.80;62.20
60455;DHT22;54989;53.398;6.564;2022-07-29T15:01:56;22.80;62.10
60455;DHT22;54989;53.398;6.564;2022-07-29T15:04:24;22.90;62.20
60455;DHT22;54989;53.398;6.564;2022-07-29T15:06:52;22.90;62.20
60455;DHT22;54989;53.398;6.564;2022-07-29T15:09:19;23.00;62.20
60455;DHT22;54989;53.398;6.564;2022-07-29T15:11:47;23.00;62.10
60455;DHT22;54989;53.398;6.564;2022-07-29T15:14:14;23.10;62.10
60455;DHT22;54989;53.398;6.564;2022-07-29T15:16:42;23.10;62.00
60455;DHT22;54989;53.398;6.564;2022-07-29T15:19:14;23.10;61.90
60455;DHT22;54989;53.398;6.564;2022-07-29T15:21:41;23.10;61.80
60455;DHT22;54989;53.398;6.564;2022-07-29T15:24:18;23.20;61.70
60455;DHT22;54989;53.398;6.564;2022-07-29T15:26:45;23.20;61.70
60455;DHT22;54989;53.398;6.564;2022-07-29T15:29:14;23.20;61.70
60455;DHT22;54989;53.398;6.564;2022-07-29T15:31:42;23.20;61.70
60455;DHT22;54989;53.398;6.564;2022-07-29T15:34:10;23.30;61.60
60455;DHT22;54989;53.398;6.564;2022-07-29T15:36:37;23.20;61.40
60455;DHT22;54989;53.398;6.564;2022-07-29T15:39:19;23.20;61.90
60455;DHT22;54989;53.398;6.564;2022-07-29T15:41:46;23.20;61.20
60455;DHT22;54989;53.398;6.564;2022-07-29T15:44:14;23.20;61.40
60455;DHT22;54989;53.398;6.564;2022-07-29T15:46:42;23.20;61.30
60455;DHT22;54989;53.398;6.564;2022-07-29T15:49:29;23.20;61.20
60455;DHT22;54989;53.398;6.564;2022-07-29T15:52:16;23.20;61.40
60455;DHT22;54989;53.398;6.564;2022-07-29T15:54:54;23.20;61.30
60455;DHT22;54989;53.398;6.564;2022-07-29T15:57:22;23.20;61.40
60455;DHT22;54989;53.398;6.564;2022-07-29T15:59:51;23.20;61.40
60455;DHT22;54989;53.398;6.564;2022-07-29T16:02:18;23.20;61.40
60455;DHT22;54989;53.398;6.564;2022-07-29T16:04:46;23.20;61.40
60455;DHT22;54989;53.398;6.564;2022-07-29T16:07:14;23.20;61.30
60455;DHT22;54989;53.398;6.564;2022-07-29T16:09:43;23.20;61.30
60455;DHT22;54989;53.398;6.564;2022-07-29T16:12:16;23.20;61.40
60455;DHT22;54989;53.398;6.564;2022-07-29T16:14:44;23.20;61.40
60455;DHT22;54989;53.398;6.564;2022-07-29T16:17:12;23.20;61.50
60455;DHT22;54989;53.398;6.564;2022-07-29T16:19:42;23.20;61.50
60455;DHT22;54989;53.398;6.564;2022-07-29T16:22:10;23.20;61.60
60455;DHT22;54989;53.398;6.564;2022-07-29T16:24:38;23.10;61.30
60455;DHT22;54989;53.398;6.564;2022-07-29T16:27:06;23.20;61.50
60455;DHT22;54989;53.398;6.564;2022-07-29T16:29:33;23.10;61.50
60455;DHT22;54989;53.398;6.564;2022-07-29T16:32:04;23.20;62.30
60455;DHT22;54989;53.398;6.564;2022-07-29T16:34:32;23.10;61.50
60455;DHT22;54989;53.398;6.564;2022-07-29T16:37:00;23.10;61.30
60455;DHT22;54989;53.398;6.564;2022-07-29T16:39:28;23.10;61.70
60455;DHT22;54989;53.398;6.564;2022-07-29T16:41:55;23.10;61.60
60455;DHT22;54989;53.398;6.564;2022-07-29T16:44:28;23.20;61.60